PADL/DLG METAR and TAF weather

Enter ICAO airport designator
Station Type Date Time Source
PADL METAR 2022/11/30 17:12 UTC NOAA

PADL 301712Z 00000KT 10SM CLR M18/M20 A3046 RMK AO2


Station Type Date Time Source
PADL Decoded METAR 2022/11/30 17:12 UTC NOAA

Dillingham, Dillingham Airport, AK, United States (PADL) 59-03N 158-31W 29M
Nov 30, 2022 - 12:12 PM EST / 2022.11.30 1712 UTC
Wind: Calm:0
Visibility: 10 mile(s):0
Sky conditions: clear
Temperature: 0 F (-18 C)
Dew Point: -4 F (-20 C)
Relative Humidity: 84%
Pressure (altimeter): 30.46 in. Hg (1031 hPa)
ob: PADL 301712Z 00000KT 10SM CLR M18/M20 A3046 RMK AO2
cycle: 17

Station Type Date Time Source
PADL TAF 2022/11/30 12:36 UTC NOAA

TAF PADL 301134Z 3012/0112 VRB06KT P6SM SKC
FM301800 VRB06KT 1 1/2SM -FZRA BR OVC007
FM302200 VRB06KT 1/2SM -FZRA FG OVC003
FM010200 VRB06KT P6SM OVC015
FM010500 VRB06KT P6SM BKN050

Example: see airport list